Time;durP1;ratioP1;P1;durP2;ratioP2;P2;SDS_P1;SDS_P2;PMS_P1;PMS_P2;Temp;Humidity;BMP_temperature;BMP_pressure;BME280_temperature;BME280_humidity;BME280_pressure;Samples;Min_cycle;Max_cycle;Signal;HPM_P1;HPM_P2
2024/04/10 00:00:21;;;;;;;17.13;3.17;;;;;;;;;;5454045;26;19999;-77
2024/04/10 00:02:48;;;;;;;21.77;2.90;;;;;;;;;;5452929;26;19994;-76
2024/04/10 00:05:17;;;;;;;18.42;2.63;;;;;;;;;;5452169;26;20011;-76
2024/04/10 00:07:45;;;;;;;18.23;3.50;;;;;;;;;;5454513;26;19995;-76
2024/04/10 00:10:12;;;;;;;18.55;3.47;;;;;;;;;;5453922;26;20011;-76
2024/04/10 00:12:39;;;;;;;21.90;4.25;;;;;;;;;;5422922;26;20076;-77
2024/04/10 00:15:06;;;;;;;30.63;3.78;;;;;;;;;;5453830;26;19999;-75
2024/04/10 00:17:32;;;;;;;24.02;4.50;;;;;;;;;;5454331;26;20003;-76
2024/04/10 00:19:59;;;;;;;24.45;3.78;;;;;;;;;;5454331;26;20071;-76
2024/04/10 00:22:27;;;;;;;15.30;3.45;;;;;;;;;;5454035;26;20010;-76
2024/04/10 00:24:53;;;;;;;23.98;4.13;;;;;;;;;;5452366;26;19999;-76
2024/04/10 00:27:24;;;;;;;18.23;3.53;;;;;;;;;;5467337;26;20068;-76
2024/04/10 00:29:51;;;;;;;23.92;4.20;;;;;;;;;;5416637;26;20011;-77
2024/04/10 00:32:18;;;;;;;20.33;3.58;;;;;;;;;;5417140;26;20003;-77
2024/04/10 00:34:45;;;;;;;22.95;3.53;;;;;;;;;;5416141;26;20024;-77
2024/04/10 00:37:12;;;;;;;18.25;2.72;;;;;;;;;;5417625;26;19996;-77
2024/04/10 00:39:39;;;;;;;24.85;3.70;;;;;;;;;;5418079;26;19996;-76
2024/04/10 00:42:06;;;;;;;22.25;2.70;;;;;;;;;;5417580;26;20007;-76
2024/04/10 00:44:33;;;;;;;22.02;3.10;;;;;;;;;;5417987;26;20007;-76
2024/04/10 00:47:00;;;;;;;24.92;2.85;;;;;;;;;;5418107;26;20010;-76
2024/04/10 00:49:27;;;;;;;25.05;3.33;;;;;;;;;;5417438;26;19996;-76
2024/04/10 00:51:54;;;;;;;26.85;3.78;;;;;;;;;;5418173;26;20548;-76
2024/04/10 00:54:22;;;;;;;22.90;3.90;;;;;;;;;;5417470;26;20035;-76
2024/04/10 00:56:49;;;;;;;21.55;3.53;;;;;;;;;;5416166;26;20096;-76
2024/04/10 00:59:16;;;;;;;24.75;3.05;;;;;;;;;;5417531;26;20456;-76
2024/04/10 01:01:43;;;;;;;20.75;3.08;;;;;;;;;;5417668;26;20028;-76
2024/04/10 01:04:10;;;;;;;29.58;5.00;;;;;;;;;;5417405;26;20004;-77
2024/04/10 01:06:37;;;;;;;21.95;3.55;;;;;;;;;;5417792;26;19995;-77
2024/04/10 01:09:03;;;;;;;31.45;3.65;;;;;;;;;;5421574;26;19997;-76
2024/04/10 01:11:30;;;;;;;25.92;3.78;;;;;;;;;;5452644;26;20371;-76
2024/04/10 01:13:57;;;;;;;20.95;2.70;;;;;;;;;;5421995;26;20330;-77
2024/04/10 01:16:24;;;;;;;28.83;4.05;;;;;;;;;;5487144;26;20069;-77
2024/04/10 01:18:51;;;;;;;27.42;4.18;;;;;;;;;;5489554;26;20002;-76
2024/04/10 01:21:18;;;;;;;24.17;3.92;;;;;;;;;;5426962;26;19994;-77
2024/04/10 01:23:45;;;;;;;25.90;3.83;;;;;;;;;;5489406;26;20075;-76
2024/04/10 01:26:11;;;;;;;24.77;3.30;;;;;;;;;;5504317;26;20009;-76
2024/04/10 01:28:39;;;;;;;22.77;3.72;;;;;;;;;;5487302;26;20022;-76
2024/04/10 01:31:05;;;;;;;40.38;4.25;;;;;;;;;;5488889;26;20009;-76
2024/04/10 01:33:32;;;;;;;22.67;3.45;;;;;;;;;;5489263;26;20070;-76
2024/04/10 01:36:06;;;;;;;20.30;3.70;;;;;;;;;;5489175;26;20002;-76
2024/04/10 01:38:33;;;;;;;19.88;4.13;;;;;;;;;;5489120;26;20002;-76
2024/04/10 01:41:01;;;;;;;15.77;2.85;;;;;;;;;;5489346;26;20006;-76
2024/04/10 01:43:27;;;;;;;27.15;3.50;;;;;;;;;;5456558;26;20435;-76
2024/04/10 01:45:54;;;;;;;26.67;3.78;;;;;;;;;;5456468;26;20002;-76
2024/04/10 01:48:21;;;;;;;24.38;3.28;;;;;;;;;;5488597;26;20421;-77
2024/04/10 01:50:49;;;;;;;22.60;3.95;;;;;;;;;;5488993;26;20559;-76
2024/04/10 01:53:16;;;;;;;22.77;3.40;;;;;;;;;;5456570;26;20441;-76
2024/04/10 01:55:43;;;;;;;22.05;3.90;;;;;;;;;;5488838;26;20421;-76
2024/04/10 01:58:10;;;;;;;23.13;3.42;;;;;;;;;;5456813;26;20427;-76
2024/04/10 02:00:37;;;;;;;19.17;3.22;;;;;;;;;;5489110;26;20001;-76
2024/04/10 02:03:04;;;;;;;25.00;3.72;;;;;;;;;;5488555;26;20452;-75
2024/04/10 02:07:09;;;;;;;25.17;3.35;;;;;;;;;;5507090;25;20780;-77
2024/04/10 02:09:36;;;;;;;25.23;3.67;;;;;;;;;;5508257;25;20010;-76
2024/04/10 02:12:03;;;;;;;25.90;3.15;;;;;;;;;;5508147;25;20073;-77
2024/04/10 02:14:31;;;;;;;18.73;3.40;;;;;;;;;;5507718;25;19998;-77
2024/04/10 02:16:58;;;;;;;27.88;3.40;;;;;;;;;;5508128;25;19998;-77
2024/04/10 02:19:25;;;;;;;23.38;3.20;;;;;;;;;;5507410;25;20037;-77
2024/04/10 02:21:52;;;;;;;21.73;3.15;;;;;;;;;;5507503;25;20074;-77
2024/04/10 02:24:20;;;;;;;25.00;3.83;;;;;;;;;;5505641;25;20013;-77
2024/04/10 02:26:47;;;;;;;24.60;3.40;;;;;;;;;;5523442;25;20002;-77
2024/04/10 02:29:14;;;;;;;30.02;4.28;;;;;;;;;;5507472;25;20009;-77
2024/04/10 02:31:41;;;;;;;22.70;3.00;;;;;;;;;;5507747;25;19994;-77
2024/04/10 02:34:08;;;;;;;28.83;3.33;;;;;;;;;;5507140;25;20047;-77
2024/04/10 02:36:35;;;;;;;20.23;2.88;;;;;;;;;;5507543;25;20004;-76
2024/04/10 02:39:02;;;;;;;19.60;3.60;;;;;;;;;;5505846;25;20101;-76
2024/04/10 02:41:29;;;;;;;16.45;3.13;;;;;;;;;;5505320;25;19997;-77
2024/04/10 02:43:56;;;;;;;23.55;2.95;;;;;;;;;;5507491;25;20458;-76
2024/04/10 02:46:23;;;;;;;17.65;3.97;;;;;;;;;;5506848;25;19998;-77
2024/04/10 02:48:50;;;;;;;22.73;2.90;;;;;;;;;;5505497;25;19993;-77
2024/04/10 02:51:16;;;;;;;23.02;3.00;;;;;;;;;;5507137;25;19998;-77
2024/04/10 02:53:43;;;;;;;25.15;4.15;;;;;;;;;;5507308;25;20010;-77
2024/04/10 02:56:10;;;;;;;25.80;3.22;;;;;;;;;;5505126;25;20077;-76
2024/04/10 02:58:37;;;;;;;26.95;3.67;;;;;;;;;;5507156;25;20457;-77
2024/04/10 03:01:04;;;;;;;21.42;3.13;;;;;;;;;;5505259;25;20390;-77
2024/04/10 03:03:31;;;;;;;26.92;3.83;;;;;;;;;;5505242;25;20306;-76
2024/04/10 03:06:04;;;;;;;19.75;3.05;;;;;;;;;;5506859;25;20001;-77
2024/04/10 03:08:32;;;;;;;20.33;3.00;;;;;;;;;;5535967;25;20298;-76
2024/04/10 03:10:59;;;;;;;26.77;2.78;;;;;;;;;;5507117;25;19994;-77
2024/04/10 03:13:27;;;;;;;31.98;3.78;;;;;;;;;;5505070;25;20002;-77
2024/04/10 03:15:54;;;;;;;20.77;3.42;;;;;;;;;;5507043;25;20386;-77
2024/04/10 03:18:21;;;;;;;19.80;3.08;;;;;;;;;;5490601;25;19994;-77
2024/04/10 03:20:48;;;;;;;25.20;3.97;;;;;;;;;;5491468;25;20022;-77
2024/04/10 03:23:15;;;;;;;28.65;4.22;;;;;;;;;;5490854;25;20006;-77
2024/04/10 03:25:42;;;;;;;24.88;3.50;;;;;;;;;;5499420;25;19997;-77
2024/04/10 03:28:09;;;;;;;24.27;3.97;;;;;;;;;;5497415;25;20012;-77
2024/04/10 03:30:36;;;;;;;22.75;4.00;;;;;;;;;;5491469;25;20030;-77
2024/04/10 03:33:03;;;;;;;21.17;3.65;;;;;;;;;;5491307;25;20492;-76
2024/04/10 03:35:29;;;;;;;22.55;3.13;;;;;;;;;;5490935;25;20425;-77
2024/04/10 03:37:57;;;;;;;21.88;3.53;;;;;;;;;;5491097;25;20002;-77
2024/04/10 03:40:23;;;;;;;17.88;2.72;;;;;;;;;;5490587;25;20013;-77
2024/04/10 03:42:53;;;;;;;31.23;4.15;;;;;;;;;;5491056;25;19998;-77
2024/04/10 03:45:20;;;;;;;19.88;3.03;;;;;;;;;;5490334;25;20154;-77
2024/04/10 03:47:47;;;;;;;17.38;2.95;;;;;;;;;;5490871;25;20022;-77
2024/04/10 03:50:14;;;;;;;26.52;3.85;;;;;;;;;;5488709;25;20433;-77
2024/04/10 03:52:44;;;;;;;22.95;2.75;;;;;;;;;;5490940;25;20008;-77
2024/04/10 03:55:12;;;;;;;21.67;3.15;;;;;;;;;;5490331;25;19994;-77
2024/04/10 03:57:38;;;;;;;35.28;4.32;;;;;;;;;;5488936;26;19998;-77
2024/04/10 04:00:07;;;;;;;32.80;4.05;;;;;;;;;;5490744;25;20009;-77
2024/04/10 04:02:34;;;;;;;33.08;3.58;;;;;;;;;;5490314;25;19994;-77
2024/04/10 04:05:01;;;;;;;23.65;3.63;;;;;;;;;;5490482;25;20746;-77
2024/04/10 04:07:28;;;;;;;27.98;3.38;;;;;;;;;;5490225;25;20034;-77
2024/04/10 04:09:55;;;;;;;27.08;3.63;;;;;;;;;;5490517;25;19998;-77
2024/04/10 04:12:22;;;;;;;29.80;3.42;;;;;;;;;;5490200;25;19998;-76
2024/04/10 04:14:50;;;;;;;17.42;2.70;;;;;;;;;;5490467;25;20033;-77
2024/04/10 04:17:19;;;;;;;28.83;4.75;;;;;;;;;;5489963;25;20078;-77
2024/04/10 04:19:46;;;;;;;37.72;4.57;;;;;;;;;;5490651;25;19998;-77
2024/04/10 04:22:13;;;;;;;24.60;3.75;;;;;;;;;;5490018;25;19998;-77
2024/04/10 04:24:39;;;;;;;23.58;3.80;;;;;;;;;;5490500;25;20010;-77
2024/04/10 04:27:08;;;;;;;20.77;2.95;;;;;;;;;;5505363;25;20067;-76
2024/04/10 04:29:35;;;;;;;26.48;3.63;;;;;;;;;;5490304;25;20455;-77
2024/04/10 04:32:03;;;;;;;27.80;3.78;;;;;;;;;;5490319;25;20009;-77
2024/04/10 04:34:30;;;;;;;28.38;3.75;;;;;;;;;;5490053;25;20074;-77
2024/04/10 04:36:59;;;;;;;21.05;3.25;;;;;;;;;;5490316;25;20009;-77
2024/04/10 04:39:26;;;;;;;21.20;3.72;;;;;;;;;;5489704;25;20037;-80
2024/04/10 04:41:53;;;;;;;18.88;3.45;;;;;;;;;;5490048;25;20010;-77
2024/04/10 04:44:19;;;;;;;26.65;4.55;;;;;;;;;;5489706;25;20066;-77
2024/04/10 04:46:46;;;;;;;30.77;4.82;;;;;;;;;;5489814;25;20028;-78
2024/04/10 04:49:13;;;;;;;22.38;3.90;;;;;;;;;;5489614;25;19998;-77
2024/04/10 04:51:40;;;;;;;20.35;3.35;;;;;;;;;;5487854;26;20302;-78
2024/04/10 04:54:07;;;;;;;25.92;4.60;;;;;;;;;;5457308;25;20085;-76
2024/04/10 04:56:34;;;;;;;29.50;3.78;;;;;;;;;;5489790;25;20035;-76
2024/04/10 04:59:00;;;;;;;29.70;4.70;;;;;;;;;;5489941;25;20026;-77
2024/04/10 05:01:27;;;;;;;25.05;4.43;;;;;;;;;;5489280;25;20002;-76
2024/04/10 05:06:39;;;;;;;27.83;4.28;;;;;;;;;;5488058;25;19998;-78
2024/04/10 05:09:09;;;;;;;21.35;4.45;;;;;;;;;;5489297;25;20010;-77
2024/04/10 05:11:36;;;;;;;31.23;6.25;;;;;;;;;;5489863;25;20377;-77
2024/04/10 05:14:04;;;;;;;21.05;4.68;;;;;;;;;;5489614;25;19994;-77
2024/04/10 05:16:31;;;;;;;26.38;5.55;;;;;;;;;;5489362;25;19994;-77
2024/04/10 05:19:01;;;;;;;27.88;4.78;;;;;;;;;;5489623;25;20067;-77
2024/04/10 05:21:28;;;;;;;26.73;4.32;;;;;;;;;;5487261;25;19994;-78
2024/04/10 05:23:55;;;;;;;20.75;4.32;;;;;;;;;;5489391;25;19994;-77
2024/04/10 05:26:22;;;;;;;23.17;4.38;;;;;;;;;;5504860;25;19994;-77
2024/04/10 05:28:49;;;;;;;24.25;3.55;;;;;;;;;;5489512;25;19998;-77
2024/04/10 05:31:16;;;;;;;22.83;4.10;;;;;;;;;;5488995;25;20010;-78
2024/04/10 05:33:43;;;;;;;19.63;3.60;;;;;;;;;;5487646;25;20002;-77
2024/04/10 05:36:10;;;;;;;25.85;3.28;;;;;;;;;;5488577;25;20459;-77
2024/04/10 05:38:37;;;;;;;22.25;3.35;;;;;;;;;;5489213;25;19998;-78
2024/04/10 05:41:04;;;;;;;30.00;4.28;;;;;;;;;;5488238;25;20070;-76
2024/04/10 05:43:31;;;;;;;24.42;3.13;;;;;;;;;;5489305;25;20038;-77
2024/04/10 05:45:59;;;;;;;29.10;3.80;;;;;;;;;;5488713;25;20065;-80
2024/04/10 05:48:26;;;;;;;16.23;3.38;;;;;;;;;;5485104;25;20033;-78
2024/04/10 05:51:01;;;;;;;23.60;3.60;;;;;;;;;;5488296;25;20002;-77
2024/04/10 05:53:31;;;;;;;20.60;3.05;;;;;;;;;;5487835;25;20010;-77
2024/04/10 05:56:01;;;;;;;29.55;3.90;;;;;;;;;;5488259;25;20317;-77
2024/04/10 05:58:28;;;;;;;20.73;3.85;;;;;;;;;;5487732;25;20067;-77
2024/04/10 06:00:55;;;;;;;31.00;3.53;;;;;;;;;;5488979;25;20146;-77
2024/04/10 06:03:22;;;;;;;20.17;2.75;;;;;;;;;;5486883;25;20437;-78
2024/04/10 06:05:49;;;;;;;40.65;3.95;;;;;;;;;;5487835;25;20395;-77
2024/04/10 06:08:15;;;;;;;17.35;4.40;;;;;;;;;;5487296;25;20014;-78
2024/04/10 06:10:49;;;;;;;25.75;4.53;;;;;;;;;;5488001;25;20002;-78
2024/04/10 06:13:16;;;;;;;29.10;4.35;;;;;;;;;;5484197;25;20071;-77
2024/04/10 06:15:43;;;;;;;31.88;5.75;;;;;;;;;;5487909;25;20101;-77
2024/04/10 06:18:10;;;;;;;34.33;5.75;;;;;;;;;;5482494;25;20012;-77
2024/04/10 06:20:37;;;;;;;30.33;4.20;;;;;;;;;;5487943;25;20006;-77
2024/04/10 06:23:04;;;;;;;34.00;5.50;;;;;;;;;;5486269;25;20330;-77
2024/04/10 06:25:31;;;;;;;35.70;5.13;;;;;;;;;;5458259;26;20002;-78
2024/04/10 06:27:57;;;;;;;33.45;3.97;;;;;;;;;;5497753;25;20002;-77
2024/04/10 06:30:24;;;;;;;29.20;3.88;;;;;;;;;;5487978;25;20025;-78
2024/04/10 06:32:51;;;;;;;32.50;4.30;;;;;;;;;;5488429;25;19994;-78
2024/04/10 06:35:19;;;;;;;30.17;4.30;;;;;;;;;;5487957;25;20073;-78
2024/04/10 06:37:46;;;;;;;28.20;3.63;;;;;;;;;;5488350;25;20013;-78
2024/04/10 06:40:13;;;;;;;23.35;2.95;;;;;;;;;;5487707;25;20215;-77
2024/04/10 06:42:40;;;;;;;28.10;3.38;;;;;;;;;;5486795;25;20524;-78
2024/04/10 06:45:07;;;;;;;23.75;2.88;;;;;;;;;;5483771;25;20014;-78
2024/04/10 06:47:34;;;;;;;23.52;2.90;;;;;;;;;;5483911;25;20006;-78
2024/04/10 06:50:06;;;;;;;32.20;3.83;;;;;;;;;;5483701;25;20009;-77
2024/04/10 06:52:33;;;;;;;30.48;4.68;;;;;;;;;;5483935;25;19998;-78
2024/04/10 06:55:00;;;;;;;26.23;3.65;;;;;;;;;;5487809;25;20043;-77
2024/04/10 06:57:26;;;;;;;23.95;3.70;;;;;;;;;;5487374;25;20009;-77
2024/04/10 06:59:53;;;;;;;36.30;3.67;;;;;;;;;;5491514;25;20074;-77
2024/04/10 07:02:21;;;;;;;20.67;3.40;;;;;;;;;;5489389;25;20069;-78
2024/04/10 07:04:47;;;;;;;27.58;4.18;;;;;;;;;;5491434;25;20432;-77
2024/04/10 07:07:15;;;;;;;29.30;4.78;;;;;;;;;;5491097;25;19997;-77
2024/04/10 07:09:42;;;;;;;24.60;3.55;;;;;;;;;;5491641;25;20076;-78
2024/04/10 07:12:09;;;;;;;29.13;4.68;;;;;;;;;;5491149;25;20456;-77
2024/04/10 07:14:39;;;;;;;27.80;3.90;;;;;;;;;;5491379;25;20050;-77
2024/04/10 07:17:06;;;;;;;27.63;6.60;;;;;;;;;;5489358;25;20353;-77
2024/04/10 07:19:34;;;;;;;50.65;17.23;;;;;;;;;;5489408;25;20067;-77
2024/04/10 07:22:08;;;;;;;39.97;15.68;;;;;;;;;;5489672;25;20009;-77
2024/04/10 07:24:36;;;;;;;31.50;7.97;;;;;;;;;;5490942;25;20069;-77
2024/04/10 07:27:04;;;;;;;33.85;8.30;;;;;;;;;;5504533;25;20009;-78
2024/04/10 07:29:31;;;;;;;26.95;6.80;;;;;;;;;;5491120;25;19998;-77
2024/04/10 07:31:58;;;;;;;31.45;15.10;;;;;;;;;;5491160;25;20429;-77
2024/04/10 07:34:25;;;;;;;27.27;8.35;;;;;;;;;;5490883;25;19994;-77
2024/04/10 07:36:52;;;;;;;31.30;8.00;;;;;;;;;;5491072;25;21490;-77
2024/04/10 07:39:19;;;;;;;31.33;6.75;;;;;;;;;;5490820;25;20071;-77
2024/04/10 07:41:46;;;;;;;31.95;5.60;;;;;;;;;;5491175;25;19997;-77
2024/04/10 07:44:14;;;;;;;35.90;4.45;;;;;;;;;;5490742;25;20008;-77
2024/04/10 07:46:41;;;;;;;35.00;5.35;;;;;;;;;;5490779;25;20413;-77
2024/04/10 07:49:09;;;;;;;41.28;6.72;;;;;;;;;;5490536;25;20006;-77
2024/04/10 07:51:37;;;;;;;30.55;4.50;;;;;;;;;;5490780;25;20461;-77
2024/04/10 07:54:04;;;;;;;31.15;5.57;;;;;;;;;;5490428;25;20028;-77
2024/04/10 07:56:31;;;;;;;23.23;4.20;;;;;;;;;;5490773;25;20111;-77
2024/04/10 07:58:58;;;;;;;27.27;5.72;;;;;;;;;;5490801;25;20009;-77
2024/04/10 08:01:26;;;;;;;25.00;6.97;;;;;;;;;;5488328;25;20070;-77
2024/04/10 08:03:53;;;;;;;33.53;7.28;;;;;;;;;;5490146;25;20362;-77
2024/04/10 08:06:20;;;;;;;32.10;6.80;;;;;;;;;;5490279;25;20425;-77
2024/04/10 08:08:47;;;;;;;30.88;8.00;;;;;;;;;;5490733;25;19994;-77
2024/04/10 08:11:18;;;;;;;27.35;5.03;;;;;;;;;;5490062;25;20021;-77
2024/04/10 08:13:46;;;;;;;23.13;4.88;;;;;;;;;;5488715;25;20294;-77
2024/04/10 08:16:13;;;;;;;38.08;5.32;;;;;;;;;;5490393;25;19994;-77
2024/04/10 08:18:41;;;;;;;27.02;3.55;;;;;;;;;;5488645;25;20002;-78
2024/04/10 08:21:16;;;;;;;28.50;3.70;;;;;;;;;;5488458;25;19998;-78
2024/04/10 08:23:44;;;;;;;30.83;4.95;;;;;;;;;;5490126;25;19998;-78
2024/04/10 08:26:13;;;;;;;37.90;9.97;;;;;;;;;;5505422;25;20013;-77
2024/04/10 08:28:45;;;;;;;45.05;10.25;;;;;;;;;;5490132;25;20016;-77
2024/04/10 08:31:16;;;;;;;31.70;4.47;;;;;;;;;;5489953;25;19998;-76
2024/04/10 08:33:47;;;;;;;35.72;6.10;;;;;;;;;;5490046;25;20066;-77
2024/04/10 08:36:16;;;;;;;31.92;4.72;;;;;;;;;;5490099;25;20006;-77
2024/04/10 08:38:44;;;;;;;35.05;3.58;;;;;;;;;;5490419;25;19994;-77
2024/04/10 08:41:19;;;;;;;27.75;3.22;;;;;;;;;;5489818;25;19994;-77
2024/04/10 08:43:48;;;;;;;26.98;3.78;;;;;;;;;;5489744;25;19998;-77
2024/04/10 08:46:17;;;;;;;32.10;5.32;;;;;;;;;;5489702;25;20009;-77
2024/04/10 08:48:45;;;;;;;33.35;4.28;;;;;;;;;;5490120;25;20448;-77
2024/04/10 08:51:14;;;;;;;16.65;3.78;;;;;;;;;;5489546;25;20309;-77
2024/04/10 08:53:42;;;;;;;;;;;;;;;;;;5490323;25;20458;-76
2024/04/10 08:56:10;;;;;;;33.45;4.57;;;;;;;;;;5489385;25;19924;-77
2024/04/10 08:58:37;;;;;;;29.70;5.90;;;;;;;;;;5490117;25;20385;-78
2024/04/10 09:01:05;;;;;;;29.85;5.07;;;;;;;;;;5489594;25;20010;-76
2024/04/10 09:03:34;;;;;;;31.60;7.68;;;;;;;;;;5487821;25;19998;-76
2024/04/10 09:06:05;;;;;;;;;;;;;;;;;;5490135;25;20070;-77
2024/04/10 09:08:32;;;;;;;26.80;5.90;;;;;;;;;;5489483;25;20318;-76
2024/04/10 09:10:59;;;;;;;26.00;6.30;;;;;;;;;;5489824;25;19994;-76
2024/04/10 09:13:27;;;;;;;23.80;6.07;;;;;;;;;;5487477;25;19994;-77
2024/04/10 09:15:57;;;;;;;19.10;5.50;;;;;;;;;;5488344;25;20500;-77
2024/04/10 09:18:26;;;;;;;29.92;5.80;;;;;;;;;;5489447;25;20067;-76
2024/04/10 09:21:11;;;;;;;23.17;5.15;;;;;;;;;;5490014;25;20313;-76
2024/04/10 09:23:38;;;;;;;18.90;4.60;;;;;;;;;;5489148;25;20051;-77
2024/04/10 09:26:06;;;;;;;24.85;4.45;;;;;;;;;;5503360;25;20320;-76
2024/04/10 09:28:34;;;;;;;19.50;3.20;;;;;;;;;;5489892;25;20013;-77
2024/04/10 09:31:01;;;;;;;18.25;2.90;;;;;;;;;;5489262;25;20039;-76
2024/04/10 09:33:32;;;;;;;16.42;3.08;;;;;;;;;;5488672;25;20078;-77
2024/04/10 09:36:02;;;;;;;16.33;2.65;;;;;;;;;;5489407;25;19994;-77
2024/04/10 09:38:34;;;;;;;13.95;3.10;;;;;;;;;;5489135;25;20073;-76
2024/04/10 09:41:03;;;;;;;10.07;2.15;;;;;;;;;;5489337;25;20040;-76
2024/04/10 09:43:31;;;;;;;12.57;2.95;;;;;;;;;;5487239;25;19998;-77
2024/04/10 09:46:02;;;;;;;14.45;2.35;;;;;;;;;;5489131;25;20321;-76
2024/04/10 09:48:34;;;;;;;10.82;2.15;;;;;;;;;;5489024;25;20416;-76
2024/04/10 09:51:06;;;;;;;10.23;2.20;;;;;;;;;;5489299;25;19998;-76
2024/04/10 09:53:34;;;;;;;11.77;1.98;;;;;;;;;;5488486;25;20010;-76
2024/04/10 09:56:05;;;;;;;10.17;2.00;;;;;;;;;;5488842;25;20341;-76
2024/04/10 09:58:37;;;;;;;6.63;1.63;;;;;;;;;;5488666;25;20263;-77
2024/04/10 10:01:04;;;;;;;4.93;1.10;;;;;;;;;;5486893;25;20022;-76
2024/04/10 10:03:32;;;;;;;7.20;1.80;;;;;;;;;;5488473;25;20000;-76
2024/04/10 10:06:04;;;;;;;7.05;1.77;;;;;;;;;;5487075;25;20005;-77
2024/04/10 10:08:33;;;;;;;8.77;1.65;;;;;;;;;;5488502;25;19998;-76
2024/04/10 10:11:01;;;;;;;3.45;1.10;;;;;;;;;;5489278;25;20304;-77
2024/04/10 10:13:34;;;;;;;5.45;1.65;;;;;;;;;;5486055;25;20002;-76
2024/04/10 10:16:03;;;;;;;5.82;1.70;;;;;;;;;;5488909;25;20381;-76
2024/04/10 10:18:30;;;;;;;5.20;2.13;;;;;;;;;;5488495;25;20070;-77
2024/04/10 10:21:04;;;;;;;5.28;1.70;;;;;;;;;;5488501;25;20437;-76
2024/04/10 10:23:33;;;;;;;5.38;1.83;;;;;;;;;;5486216;25;20002;-76
2024/04/10 10:26:00;;;;;;;3.10;1.70;;;;;;;;;;5501627;25;20065;-77
2024/04/10 10:28:29;;;;;;;2.53;1.10;;;;;;;;;;5493634;25;20006;-76
2024/04/10 10:31:11;;;;;;;2.88;1.70;;;;;;;;;;5491982;25;20013;-76
2024/04/10 10:33:42;;;;;;;2.97;1.88;;;;;;;;;;5491522;25;20424;-76
2024/04/10 10:36:09;;;;;;;2.45;1.27;;;;;;;;;;5491640;25;20010;-76
2024/04/10 10:38:37;;;;;;;4.32;2.15;;;;;;;;;;5492013;25;20317;-76
2024/04/10 10:41:05;;;;;;;2.47;1.13;;;;;;;;;;5491714;25;20043;-77
2024/04/10 10:43:38;;;;;;;3.60;0.70;;;;;;;;;;5491755;25;20053;-77
2024/04/10 10:46:05;;;;;;;0.98;0.40;;;;;;;;;;5491556;25;20430;-77
2024/04/10 10:48:32;;;;;;;1.80;0.40;;;;;;;;;;5491649;25;20063;-77
2024/04/10 10:50:59;;;;;;;1.45;0.45;;;;;;;;;;5491568;25;20005;-76
2024/04/10 10:53:27;;;;;;;1.52;0.57;;;;;;;;;;5490818;25;19994;-77
2024/04/10 10:55:56;;;;;;;2.55;0.57;;;;;;;;;;5489951;25;20316;-76
2024/04/10 10:58:24;;;;;;;;;;;;;;;;;;5492000;25;19998;-77
2024/04/10 11:00:52;;;;;;;1.65;0.47;;;;;;;;;;5491923;25;19932;-77
2024/04/10 11:03:19;;;;;;;2.58;0.65;;;;;;;;;;5490899;25;20027;-77
2024/04/10 11:06:09;;;;;;;1.15;0.60;;;;;;;;;;5491496;25;20025;-76
2024/04/10 11:08:37;;;;;;;2.28;0.30;;;;;;;;;;5491452;25;20009;-77
2024/04/10 11:11:04;;;;;;;2.00;0.60;;;;;;;;;;5491497;25;19994;-76
2024/04/10 11:13:35;;;;;;;1.00;0.30;;;;;;;;;;5491224;25;20320;-77
2024/04/10 11:16:02;;;;;;;1.70;0.40;;;;;;;;;;5491390;25;20005;-76
2024/04/10 11:18:29;;;;;;;1.48;0.30;;;;;;;;;;5489421;25;20377;-77
2024/04/10 11:20:56;;;;;;;2.03;0.75;;;;;;;;;;5491418;25;20010;-76
2024/04/10 11:23:24;;;;;;;1.05;0.50;;;;;;;;;;5490729;25;20039;-75
2024/04/10 11:25:52;;;;;;;3.08;0.75;;;;;;;;;;5499921;25;19997;-77
2024/04/10 11:28:19;;;;;;;2.05;0.80;;;;;;;;;;5456776;25;20325;-77
2024/04/10 11:30:46;;;;;;;2.75;0.60;;;;;;;;;;5454956;25;19998;-76
2024/04/10 11:33:13;;;;;;;4.68;1.33;;;;;;;;;;5454192;25;20337;-76
2024/04/10 11:35:40;;;;;;;3.88;1.10;;;;;;;;;;5454769;25;19999;-76
2024/04/10 11:38:08;;;;;;;1.75;0.60;;;;;;;;;;5453432;25;20002;-76
2024/04/10 11:40:34;;;;;;;6.47;0.93;;;;;;;;;;5454609;25;19999;-77
2024/04/10 11:43:02;;;;;;;3.10;0.65;;;;;;;;;;5482266;25;20066;-77
2024/04/10 11:45:29;;;;;;;5.07;0.95;;;;;;;;;;5454072;25;19998;-77
2024/04/10 11:47:56;;;;;;;4.38;0.80;;;;;;;;;;5482810;25;20457;-76
2024/04/10 11:50:23;;;;;;;3.72;1.02;;;;;;;;;;5454203;25;20014;-77
2024/04/10 11:52:50;;;;;;;4.50;1.13;;;;;;;;;;5454414;25;20010;-76
2024/04/10 11:55:17;;;;;;;5.15;1.40;;;;;;;;;;5453616;25;20007;-77
2024/04/10 11:57:46;;;;;;;4.03;1.17;;;;;;;;;;5454492;25;19995;-77
2024/04/10 12:00:14;;;;;;;4.90;1.38;;;;;;;;;;5453842;25;20375;-77
2024/04/10 12:02:42;;;;;;;5.43;1.73;;;;;;;;;;5454377;25;20006;-77
2024/04/10 12:05:09;;;;;;;6.90;1.48;;;;;;;;;;5453397;25;20017;-77
2024/04/10 12:07:38;;;;;;;6.72;1.50;;;;;;;;;;5453986;25;20002;-77
2024/04/10 12:10:06;;;;;;;5.65;0.95;;;;;;;;;;5482832;25;20249;-77
2024/04/10 12:12:33;;;;;;;4.47;0.88;;;;;;;;;;5454072;25;20011;-77
2024/04/10 12:15:00;;;;;;;4.95;1.00;;;;;;;;;;5453752;25;20005;-76
2024/04/10 12:17:29;;;;;;;5.22;0.93;;;;;;;;;;5453495;25;19994;-76
2024/04/10 12:19:57;;;;;;;2.88;0.85;;;;;;;;;;5452363;26;20039;-77
2024/04/10 12:22:24;;;;;;;7.63;1.65;;;;;;;;;;5453820;25;19999;-77
2024/04/10 12:24:51;;;;;;;5.00;1.00;;;;;;;;;;5454117;25;20006;-77
2024/04/10 12:27:17;;;;;;;3.88;1.02;;;;;;;;;;5518317;25;20336;-76
2024/04/10 12:29:45;;;;;;;7.68;1.33;;;;;;;;;;5490956;25;20006;-77
2024/04/10 12:32:15;;;;;;;8.00;1.23;;;;;;;;;;5488039;25;20008;-77
2024/04/10 12:34:42;;;;;;;6.68;1.25;;;;;;;;;;5489980;25;19998;-77
2024/04/10 12:39:54;;;;;;;6.30;1.73;;;;;;;;;;5490128;25;20002;-77
2024/04/10 12:42:21;;;;;;;9.73;2.10;;;;;;;;;;5489394;25;19994;-77
2024/04/10 12:44:48;;;;;;;13.15;2.13;;;;;;;;;;5490169;25;20013;-76
2024/04/10 12:47:15;;;;;;;15.48;2.42;;;;;;;;;;5489712;25;19994;-77
2024/04/10 12:49:42;;;;;;;12.88;2.30;;;;;;;;;;5488289;25;20005;-77
2024/04/10 12:52:09;;;;;;;11.05;2.03;;;;;;;;;;5487724;25;20025;-77
2024/04/10 12:54:36;;;;;;;13.07;2.80;;;;;;;;;;5489643;25;20008;-77
2024/04/10 12:57:04;;;;;;;18.20;2.85;;;;;;;;;;5489786;25;20002;-77
2024/04/10 12:59:31;;;;;;;12.18;2.50;;;;;;;;;;5488095;25;20006;-76
2024/04/10 13:01:58;;;;;;;15.50;3.25;;;;;;;;;;5489925;25;20123;-76
2024/04/10 13:04:25;;;;;;;7.97;1.88;;;;;;;;;;5489363;25;20241;-77
2024/04/10 13:06:52;;;;;;;9.40;2.28;;;;;;;;;;5489696;25;19998;-77
2024/04/10 13:09:20;;;;;;;13.48;1.90;;;;;;;;;;5487618;25;20389;-77
2024/04/10 13:11:47;;;;;;;9.40;1.65;;;;;;;;;;5488022;25;20017;-77
2024/04/10 13:14:15;;;;;;;7.57;1.50;;;;;;;;;;5489185;25;20021;-76
2024/04/10 13:16:42;;;;;;;6.22;1.30;;;;;;;;;;5489811;25;19993;-77
2024/04/10 13:19:09;;;;;;;7.18;1.55;;;;;;;;;;5489121;25;20417;-77
2024/04/10 13:21:37;;;;;;;6.03;1.27;;;;;;;;;;5489782;25;20067;-77
2024/04/10 13:24:05;;;;;;;6.82;1.27;;;;;;;;;;5488951;25;20374;-76
2024/04/10 13:26:32;;;;;;;8.55;2.35;;;;;;;;;;5504720;25;20041;-77
2024/04/10 13:28:59;;;;;;;11.27;2.70;;;;;;;;;;5489519;25;20342;-76
2024/04/10 13:31:26;;;;;;;10.90;2.53;;;;;;;;;;5487017;25;20033;-77
2024/04/10 13:34:00;;;;;;;9.35;3.00;;;;;;;;;;5489449;25;20008;-76
2024/04/10 13:36:27;;;;;;;19.33;3.22;;;;;;;;;;5489210;25;20021;-77
2024/04/10 13:38:54;;;;;;;17.25;4.28;;;;;;;;;;5489513;25;20030;-77
2024/04/10 13:41:23;;;;;;;13.10;3.50;;;;;;;;;;5488799;25;20070;-77
2024/04/10 13:43:51;;;;;;;10.52;2.38;;;;;;;;;;5489138;25;20333;-77
2024/04/10 13:46:19;;;;;;;13.98;3.03;;;;;;;;;;5488874;25;19998;-77
2024/04/10 13:48:47;;;;;;;22.13;3.13;;;;;;;;;;5489177;25;20444;-76
2024/04/10 13:51:25;;;;;;;17.75;3.78;;;;;;;;;;5488869;25;19994;-77
2024/04/10 13:53:53;;;;;;;19.27;3.87;;;;;;;;;;5489287;25;20309;-77
2024/04/10 13:56:21;;;;;;;28.35;4.95;;;;;;;;;;5488764;25;20008;-77
2024/04/10 13:58:48;;;;;;;10.68;2.67;;;;;;;;;;5489023;25;20496;-77
2024/04/10 14:01:17;;;;;;;8.80;2.55;;;;;;;;;;5488013;25;19998;-77
2024/04/10 14:03:47;;;;;;;7.30;2.00;;;;;;;;;;5488981;25;19998;-77
2024/04/10 14:06:15;;;;;;;7.30;1.75;;;;;;;;;;5484801;25;19998;-77
2024/04/10 14:08:44;;;;;;;7.72;1.70;;;;;;;;;;5488648;25;20013;-77
2024/04/10 14:11:13;;;;;;;7.57;2.08;;;;;;;;;;5488296;25;20477;-77
2024/04/10 14:13:41;;;;;;;8.07;2.50;;;;;;;;;;5488557;25;20017;-78
2024/04/10 14:16:08;;;;;;;28.92;3.10;;;;;;;;;;5486229;25;20002;-77
2024/04/10 14:18:36;;;;;;;85.35;5.88;;;;;;;;;;5488750;25;20066;-77
2024/04/10 14:21:13;;;;;;;56.05;4.88;;;;;;;;;;5488125;25;20006;-77
2024/04/10 14:23:41;;;;;;;77.07;6.40;;;;;;;;;;5487653;25;20401;-77
2024/04/10 14:26:16;;;;;;;50.85;5.10;;;;;;;;;;5489415;25;20013;-77
2024/04/10 14:28:44;;;;;;;48.42;6.30;;;;;;;;;;5487527;25;20062;-77
2024/04/10 14:31:11;;;;;;;63.08;6.90;;;;;;;;;;5487446;25;19995;-77
2024/04/10 14:33:40;;;;;;;43.10;6.30;;;;;;;;;;5487734;25;20065;-78
2024/04/10 14:36:08;;;;;;;108.75;6.95;;;;;;;;;;5482958;25;20012;-77
2024/04/10 14:38:36;;;;;;;125.03;8.38;;;;;;;;;;5485703;25;19998;-77
2024/04/10 14:41:04;;;;;;;104.67;8.57;;;;;;;;;;5487632;25;19994;-77
2024/04/10 14:43:32;;;;;;;84.23;8.20;;;;;;;;;;5487500;25;20026;-77